sensor_id;sensor_type;location;lat;lon;timestamp;pressure;altitude;pressure_sealevel;temperature;humidity
50518;BME280;37075;44.084;2.962;2023-08-07T00:01:35;98236.31;;;12.25;60.44
50518;BME280;37075;44.084;2.962;2023-08-07T00:04:21;98231.63;;;12.25;60.60
50518;BME280;37075;44.084;2.962;2023-08-07T00:07:07;98240.81;;;12.21;59.00
50518;BME280;37075;44.084;2.962;2023-08-07T00:09:53;98238.59;;;12.14;60.50
50518;BME280;37075;44.084;2.962;2023-08-07T00:12:39;98242.47;;;12.13;58.97
50518;BME280;37075;44.084;2.962;2023-08-07T00:15:25;98235.72;;;12.11;59.30
50518;BME280;37075;44.084;2.962;2023-08-07T00:18:12;98230.59;;;12.09;58.52
50518;BME280;37075;44.084;2.962;2023-08-07T00:20:59;98235.13;;;12.05;58.32
50518;BME280;37075;44.084;2.962;2023-08-07T00:23:44;98238.06;;;12.00;59.71
50518;BME280;37075;44.084;2.962;2023-08-07T00:26:30;98247.22;;;11.95;62.52
50518;BME280;37075;44.084;2.962;2023-08-07T00:29:17;98241.28;;;11.93;59.91
50518;BME280;37075;44.084;2.962;2023-08-07T00:32:03;98241.16;;;11.90;59.89
50518;BME280;37075;44.084;2.962;2023-08-07T00:34:51;98249.69;;;11.88;60.05
50518;BME280;37075;44.084;2.962;2023-08-07T00:37:37;98237.47;;;11.86;59.72
50518;BME280;37075;44.084;2.962;2023-08-07T00:40:23;98242.81;;;11.82;59.96
50518;BME280;37075;44.084;2.962;2023-08-07T00:43:09;98232.19;;;11.81;60.37
50518;BME280;37075;44.084;2.962;2023-08-07T00:45:55;98232.53;;;11.79;60.01
50518;BME280;37075;44.084;2.962;2023-08-07T00:48:41;98224.63;;;11.78;59.82
50518;BME280;37075;44.084;2.962;2023-08-07T00:51:47;98215.63;;;11.77;59.61
50518;BME280;37075;44.084;2.962;2023-08-07T00:54:34;98221.78;;;11.65;65.20
50518;BME280;37075;44.084;2.962;2023-08-07T00:57:20;98216.44;;;11.69;61.01
50518;BME280;37075;44.084;2.962;2023-08-07T01:00:08;98220.66;;;11.66;61.17
50518;BME280;37075;44.084;2.962;2023-08-07T01:02:54;98220.16;;;11.64;60.74
50518;BME280;37075;44.084;2.962;2023-08-07T01:05:41;98215.03;;;11.63;60.30
50518;BME280;37075;44.084;2.962;2023-08-07T01:08:28;98217.50;;;11.56;64.76
50518;BME280;37075;44.084;2.962;2023-08-07T01:11:18;98219.09;;;11.57;61.09
50518;BME280;37075;44.084;2.962;2023-08-07T01:14:08;98214.94;;;11.51;63.19
50518;BME280;37075;44.084;2.962;2023-08-07T01:16:57;98213.81;;;11.52;62.27
50518;BME280;37075;44.084;2.962;2023-08-07T01:19:46;98213.00;;;11.51;61.56
50518;BME280;37075;44.084;2.962;2023-08-07T01:22:34;98208.22;;;11.48;62.12
50518;BME280;37075;44.084;2.962;2023-08-07T01:25:38;98207.72;;;11.46;61.13
50518;BME280;37075;44.084;2.962;2023-08-07T01:28:26;98207.22;;;11.44;61.45
50518;BME280;37075;44.084;2.962;2023-08-07T01:31:14;98203.56;;;11.40;61.61
50518;BME280;37075;44.084;2.962;2023-08-07T01:34:02;98218.34;;;11.39;62.04
50518;BME280;37075;44.084;2.962;2023-08-07T01:36:49;98216.59;;;11.34;61.68
50518;BME280;37075;44.084;2.962;2023-08-07T01:39:37;98214.50;;;11.31;62.14
50518;BME280;37075;44.084;2.962;2023-08-07T01:42:23;98215.97;;;11.29;62.19
50518;BME280;37075;44.084;2.962;2023-08-07T01:45:09;98220.81;;;11.23;66.22
50518;BME280;37075;44.084;2.962;2023-08-07T01:47:55;98224.19;;;11.20;63.48
50518;BME280;37075;44.084;2.962;2023-08-07T01:50:41;98207.81;;;11.20;63.27
50518;BME280;37075;44.084;2.962;2023-08-07T01:53:27;98220.16;;;11.18;65.88
50518;BME280;37075;44.084;2.962;2023-08-07T01:56:14;98211.47;;;11.33;66.10
50518;BME280;37075;44.084;2.962;2023-08-07T01:59:00;98211.41;;;11.41;64.61
50518;BME280;37075;44.084;2.962;2023-08-07T02:01:46;98213.34;;;11.50;65.07
50518;BME280;37075;44.084;2.962;2023-08-07T02:04:32;98203.31;;;11.62;64.37
50518;BME280;37075;44.084;2.962;2023-08-07T02:07:18;98209.56;;;11.71;65.30
50518;BME280;37075;44.084;2.962;2023-08-07T02:10:23;98215.63;;;11.77;63.74
50518;BME280;37075;44.084;2.962;2023-08-07T02:13:10;98211.22;;;11.93;65.41
50518;BME280;37075;44.084;2.962;2023-08-07T02:15:56;98213.34;;;12.17;64.55
50518;BME280;37075;44.084;2.962;2023-08-07T02:18:42;98215.28;;;12.38;64.86
50518;BME280;37075;44.084;2.962;2023-08-07T02:21:31;98214.72;;;12.53;64.25
50518;BME280;37075;44.084;2.962;2023-08-07T02:24:17;98213.28;;;12.68;63.63
50518;BME280;37075;44.084;2.962;2023-08-07T02:27:04;98212.56;;;12.79;63.52
50518;BME280;37075;44.084;2.962;2023-08-07T02:29:51;98209.06;;;12.91;63.38
50518;BME280;37075;44.084;2.962;2023-08-07T02:32:37;98205.06;;;13.01;63.35
50518;BME280;37075;44.084;2.962;2023-08-07T02:35:26;98209.81;;;13.12;63.20
50518;BME280;37075;44.084;2.962;2023-08-07T02:38:11;98201.31;;;13.26;62.64
50518;BME280;37075;44.084;2.962;2023-08-07T02:40:58;98198.94;;;13.37;62.21
50518;BME280;37075;44.084;2.962;2023-08-07T02:43:44;98193.34;;;13.45;61.90
50518;BME280;37075;44.084;2.962;2023-08-07T02:46:31;98197.94;;;13.53;61.83
50518;BME280;37075;44.084;2.962;2023-08-07T02:49:20;98197.03;;;13.62;61.60
50518;BME280;37075;44.084;2.962;2023-08-07T02:52:06;98202.75;;;13.69;61.36
50518;BME280;37075;44.084;2.962;2023-08-07T02:54:52;98206.50;;;13.76;61.09
50518;BME280;37075;44.084;2.962;2023-08-07T02:57:38;98204.00;;;13.83;61.28
50518;BME280;37075;44.084;2.962;2023-08-07T03:00:24;98208.56;;;13.92;60.82
50518;BME280;37075;44.084;2.962;2023-08-07T03:03:11;98209.47;;;13.96;60.66
50518;BME280;37075;44.084;2.962;2023-08-07T03:05:57;98204.44;;;13.98;60.80
50518;BME280;37075;44.084;2.962;2023-08-07T03:08:43;98203.88;;;14.04;60.30
50518;BME280;37075;44.084;2.962;2023-08-07T03:11:29;98203.22;;;14.07;60.24
50518;BME280;37075;44.084;2.962;2023-08-07T03:14:15;98208.00;;;14.10;60.24
50518;BME280;37075;44.084;2.962;2023-08-07T03:17:01;98201.03;;;14.13;60.03
50518;BME280;37075;44.084;2.962;2023-08-07T03:19:48;98203.31;;;14.11;59.90
50518;BME280;37075;44.084;2.962;2023-08-07T03:22:34;98203.66;;;14.09;59.93
50518;BME280;37075;44.084;2.962;2023-08-07T03:25:20;98208.25;;;14.05;60.30
50518;BME280;37075;44.084;2.962;2023-08-07T03:28:07;98196.13;;;14.06;60.52
50518;BME280;37075;44.084;2.962;2023-08-07T03:30:53;98200.81;;;14.06;60.79
50518;BME280;37075;44.084;2.962;2023-08-07T03:33:39;98206.06;;;14.11;60.37
50518;BME280;37075;44.084;2.962;2023-08-07T03:36:27;98196.34;;;14.13;60.33
50518;BME280;37075;44.084;2.962;2023-08-07T03:39:13;98195.19;;;14.14;60.58
50518;BME280;37075;44.084;2.962;2023-08-07T03:41:59;98196.19;;;14.22;60.21
50518;BME280;37075;44.084;2.962;2023-08-07T03:44:45;98196.31;;;14.26;59.47
50518;BME280;37075;44.084;2.962;2023-08-07T03:47:31;98197.44;;;14.25;59.30
50518;BME280;37075;44.084;2.962;2023-08-07T03:50:17;98204.44;;;14.22;59.27
50518;BME280;37075;44.084;2.962;2023-08-07T03:53:05;98198.16;;;14.22;59.09
50518;BME280;37075;44.084;2.962;2023-08-07T03:55:56;98195.28;;;14.18;59.22
50518;BME280;37075;44.084;2.962;2023-08-07T03:58:42;98193.94;;;14.12;59.41
50518;BME280;37075;44.084;2.962;2023-08-07T04:01:28;98185.72;;;14.12;58.85
50518;BME280;37075;44.084;2.962;2023-08-07T04:04:13;98191.09;;;14.08;58.78
50518;BME280;37075;44.084;2.962;2023-08-07T04:07:18;98187.75;;;14.03;58.75
50518;BME280;37075;44.084;2.962;2023-08-07T04:10:06;98184.00;;;13.95;58.79
50518;BME280;37075;44.084;2.962;2023-08-07T04:12:51;98183.09;;;13.91;58.52
50518;BME280;37075;44.084;2.962;2023-08-07T04:15:37;98192.25;;;13.83;58.54
50518;BME280;37075;44.084;2.962;2023-08-07T04:18:24;98190.41;;;13.75;58.34
50518;BME280;37075;44.084;2.962;2023-08-07T04:21:11;98187.78;;;13.66;58.26
50518;BME280;37075;44.084;2.962;2023-08-07T04:23:57;98191.44;;;13.58;58.29
50518;BME280;37075;44.084;2.962;2023-08-07T04:26:45;98194.94;;;13.46;59.71
50518;BME280;37075;44.084;2.962;2023-08-07T04:29:31;98192.44;;;13.41;59.38
50518;BME280;37075;44.084;2.962;2023-08-07T04:32:18;98190.38;;;13.38;59.29
50518;BME280;37075;44.084;2.962;2023-08-07T04:35:04;98196.53;;;13.35;60.11
50518;BME280;37075;44.084;2.962;2023-08-07T04:37:50;98188.78;;;13.37;59.39
50518;BME280;37075;44.084;2.962;2023-08-07T04:40:36;98191.41;;;13.34;59.60
50518;BME280;37075;44.084;2.962;2023-08-07T04:43:23;98194.94;;;13.34;60.16
50518;BME280;37075;44.084;2.962;2023-08-07T04:46:27;98198.25;;;13.40;59.59
50518;BME280;37075;44.084;2.962;2023-08-07T04:49:13;98197.00;;;13.37;59.22
50518;BME280;37075;44.084;2.962;2023-08-07T04:52:18;98196.88;;;13.34;58.92
50518;BME280;37075;44.084;2.962;2023-08-07T04:55:04;98203.72;;;13.27;59.29
50518;BME280;37075;44.084;2.962;2023-08-07T04:57:50;98204.72;;;13.23;59.32
50518;BME280;37075;44.084;2.962;2023-08-07T05:00:40;98194.00;;;13.18;59.80
50518;BME280;37075;44.084;2.962;2023-08-07T05:03:44;98198.19;;;13.15;60.08
50518;BME280;37075;44.084;2.962;2023-08-07T05:06:30;98204.00;;;13.14;59.60
50518;BME280;37075;44.084;2.962;2023-08-07T05:09:16;98206.28;;;13.12;59.61
50518;BME280;37075;44.084;2.962;2023-08-07T05:12:02;98211.63;;;13.08;60.77
50518;BME280;37075;44.084;2.962;2023-08-07T05:14:47;98199.41;;;13.06;60.29
50518;BME280;37075;44.084;2.962;2023-08-07T05:17:34;98212.66;;;13.04;60.34
50518;BME280;37075;44.084;2.962;2023-08-07T05:20:20;98205.22;;;13.04;59.98
50518;BME280;37075;44.084;2.962;2023-08-07T05:23:06;98206.38;;;13.03;59.97
50518;BME280;37075;44.084;2.962;2023-08-07T05:26:11;98202.84;;;13.03;60.47
50518;BME280;37075;44.084;2.962;2023-08-07T05:28:56;98207.81;;;13.01;60.78
50518;BME280;37075;44.084;2.962;2023-08-07T05:31:43;98208.97;;;13.00;60.38
50518;BME280;37075;44.084;2.962;2023-08-07T05:34:30;98213.97;;;12.97;60.23
50518;BME280;37075;44.084;2.962;2023-08-07T05:37:16;98222.88;;;12.94;61.45
50518;BME280;37075;44.084;2.962;2023-08-07T05:40:02;98214.66;;;12.94;60.53
50518;BME280;37075;44.084;2.962;2023-08-07T05:42:49;98220.13;;;12.94;60.26
50518;BME280;37075;44.084;2.962;2023-08-07T05:45:35;98224.81;;;12.94;60.42
50518;BME280;37075;44.084;2.962;2023-08-07T05:48:21;98214.66;;;12.94;60.98
50518;BME280;37075;44.084;2.962;2023-08-07T05:51:08;98213.50;;;12.95;60.72
50518;BME280;37075;44.084;2.962;2023-08-07T05:53:54;98209.63;;;12.96;60.97
50518;BME280;37075;44.084;2.962;2023-08-07T05:56:40;98208.03;;;12.95;61.92
50518;BME280;37075;44.084;2.962;2023-08-07T05:59:26;98222.19;;;12.97;61.64
50518;BME280;37075;44.084;2.962;2023-08-07T06:02:13;98219.91;;;13.00;61.55
50518;BME280;37075;44.084;2.962;2023-08-07T06:04:59;98218.13;;;13.04;61.44
50518;BME280;37075;44.084;2.962;2023-08-07T06:07:46;98216.31;;;13.08;61.03
50518;BME280;37075;44.084;2.962;2023-08-07T06:10:32;98209.47;;;13.14;61.22
50518;BME280;37075;44.084;2.962;2023-08-07T06:13:18;98217.97;;;13.21;61.12
50518;BME280;37075;44.084;2.962;2023-08-07T06:16:22;98224.81;;;13.27;61.66
50518;BME280;37075;44.084;2.962;2023-08-07T06:19:08;98222.69;;;13.33;61.80
50518;BME280;37075;44.084;2.962;2023-08-07T06:21:54;98220.97;;;13.40;61.43
50518;BME280;37075;44.084;2.962;2023-08-07T06:24:42;98220.75;;;13.45;61.52
50518;BME280;37075;44.084;2.962;2023-08-07T06:27:46;98208.91;;;13.53;61.67
50518;BME280;37075;44.084;2.962;2023-08-07T06:30:32;98217.03;;;13.62;61.54
50518;BME280;37075;44.084;2.962;2023-08-07T06:33:18;98225.59;;;13.73;61.11
50518;BME280;37075;44.084;2.962;2023-08-07T06:36:04;98224.34;;;13.82;61.02
50518;BME280;37075;44.084;2.962;2023-08-07T06:38:50;98224.69;;;13.93;60.79
50518;BME280;37075;44.084;2.962;2023-08-07T06:41:38;98225.81;;;14.04;60.64
50518;BME280;37075;44.084;2.962;2023-08-07T06:44:42;98226.16;;;14.15;60.93
50518;BME280;37075;44.084;2.962;2023-08-07T06:47:28;98226.81;;;14.24;60.94
50518;BME280;37075;44.084;2.962;2023-08-07T06:50:14;98220.09;;;14.34;60.48
50518;BME280;37075;44.084;2.962;2023-08-07T06:52:59;98219.28;;;14.45;60.64
50518;BME280;37075;44.084;2.962;2023-08-07T06:56:04;98223.13;;;14.57;60.27
50518;BME280;37075;44.084;2.962;2023-08-07T06:58:51;98221.88;;;14.66;61.42
50518;BME280;37075;44.084;2.962;2023-08-07T07:01:56;98221.81;;;14.78;60.60
50518;BME280;37075;44.084;2.962;2023-08-07T07:04:42;98229.22;;;14.90;60.51
50518;BME280;37075;44.084;2.962;2023-08-07T07:07:28;98232.69;;;15.03;59.98
50518;BME280;37075;44.084;2.962;2023-08-07T07:10:14;98234.63;;;15.15;59.54
50518;BME280;37075;44.084;2.962;2023-08-07T07:13:00;98238.09;;;15.27;59.06
50518;BME280;37075;44.084;2.962;2023-08-07T07:15:47;98229.00;;;15.39;58.62
50518;BME280;37075;44.084;2.962;2023-08-07T07:18:37;98224.91;;;15.49;57.39
50518;BME280;37075;44.084;2.962;2023-08-07T07:21:23;98224.41;;;15.59;56.62
50518;BME280;37075;44.084;2.962;2023-08-07T07:24:09;98229.47;;;15.72;55.27
50518;BME280;37075;44.084;2.962;2023-08-07T07:26:55;98223.19;;;15.88;56.27
50518;BME280;37075;44.084;2.962;2023-08-07T07:29:41;98220.34;;;16.00;56.24
50518;BME280;37075;44.084;2.962;2023-08-07T07:32:28;98214.72;;;16.12;53.58
50518;BME280;37075;44.084;2.962;2023-08-07T07:35:14;98214.69;;;16.28;52.31
50518;BME280;37075;44.084;2.962;2023-08-07T07:38:00;98215.81;;;16.43;52.49
50518;BME280;37075;44.084;2.962;2023-08-07T07:40:46;98212.91;;;16.55;52.02
50518;BME280;37075;44.084;2.962;2023-08-07T07:43:31;98209.28;;;16.67;53.26
50518;BME280;37075;44.084;2.962;2023-08-07T07:46:17;98215.81;;;16.78;53.40
50518;BME280;37075;44.084;2.962;2023-08-07T07:49:04;98213.19;;;16.85;50.96
50518;BME280;37075;44.084;2.962;2023-08-07T07:52:09;98218.56;;;16.97;52.28
50518;BME280;37075;44.084;2.962;2023-08-07T07:54:55;98207.38;;;17.09;49.75
50518;BME280;37075;44.084;2.962;2023-08-07T07:57:41;98202.88;;;17.20;51.27
50518;BME280;37075;44.084;2.962;2023-08-07T08:00:26;98211.28;;;17.27;50.04
50518;BME280;37075;44.084;2.962;2023-08-07T08:03:12;98211.41;;;17.35;48.05
50518;BME280;37075;44.084;2.962;2023-08-07T08:06:00;98205.72;;;17.47;48.31
50518;BME280;37075;44.084;2.962;2023-08-07T08:08:46;98201.19;;;17.58;46.83
50518;BME280;37075;44.084;2.962;2023-08-07T08:11:31;98204.50;;;17.67;45.60
50518;BME280;37075;44.084;2.962;2023-08-07T08:14:36;98199.28;;;17.85;46.83
50518;BME280;37075;44.084;2.962;2023-08-07T08:17:22;98207.81;;;17.99;46.65
50518;BME280;37075;44.084;2.962;2023-08-07T08:20:09;98203.63;;;18.09;46.94
50518;BME280;37075;44.084;2.962;2023-08-07T08:22:56;98211.63;;;18.17;45.08
50518;BME280;37075;44.084;2.962;2023-08-07T08:26:00;98212.63;;;18.32;43.75
50518;BME280;37075;44.084;2.962;2023-08-07T08:28:47;98227.50;;;18.51;42.26
50518;BME280;37075;44.084;2.962;2023-08-07T08:31:33;98212.31;;;18.64;42.72
50518;BME280;37075;44.084;2.962;2023-08-07T08:34:18;98223.22;;;18.83;42.16
50518;BME280;37075;44.084;2.962;2023-08-07T08:37:05;98212.28;;;18.94;41.22
50518;BME280;37075;44.084;2.962;2023-08-07T08:39:54;98211.59;;;19.00;40.50
50518;BME280;37075;44.084;2.962;2023-08-07T08:42:40;98218.03;;;19.12;39.92
50518;BME280;37075;44.084;2.962;2023-08-07T08:45:26;98224.47;;;19.23;39.40
50518;BME280;37075;44.084;2.962;2023-08-07T08:48:13;98217.53;;;19.36;39.37
50518;BME280;37075;44.084;2.962;2023-08-07T08:51:02;98225.06;;;19.39;39.67
50518;BME280;37075;44.084;2.962;2023-08-07T08:53:49;98229.84;;;19.46;39.41
50518;BME280;37075;44.084;2.962;2023-08-07T08:56:37;98221.59;;;19.49;39.03
50518;BME280;37075;44.084;2.962;2023-08-07T08:59:23;98220.94;;;19.59;38.44
50518;BME280;37075;44.084;2.962;2023-08-07T09:02:09;98215.19;;;19.79;39.02
50518;BME280;37075;44.084;2.962;2023-08-07T09:04:56;98221.06;;;19.74;37.93
50518;BME280;37075;44.084;2.962;2023-08-07T09:07:41;98214.84;;;19.84;38.06
50518;BME280;37075;44.084;2.962;2023-08-07T09:10:28;98209.78;;;19.96;37.99
50518;BME280;37075;44.084;2.962;2023-08-07T09:13:16;98210.72;;;20.11;37.46
50518;BME280;37075;44.084;2.962;2023-08-07T09:16:02;98207.22;;;20.25;38.09
50518;BME280;37075;44.084;2.962;2023-08-07T09:18:49;98216.03;;;20.38;37.82
50518;BME280;37075;44.084;2.962;2023-08-07T09:21:36;98208.97;;;20.44;37.58
50518;BME280;37075;44.084;2.962;2023-08-07T09:24:21;98210.16;;;20.43;36.41
50518;BME280;37075;44.084;2.962;2023-08-07T09:27:07;98207.81;;;20.52;36.25
50518;BME280;37075;44.084;2.962;2023-08-07T09:29:55;98218.56;;;20.57;35.83
50518;BME280;37075;44.084;2.962;2023-08-07T09:33:00;98218.97;;;20.59;35.63
50518;BME280;37075;44.084;2.962;2023-08-07T09:35:46;98205.50;;;20.57;36.30
50518;BME280;37075;44.084;2.962;2023-08-07T09:38:32;98212.66;;;20.62;36.27
50518;BME280;37075;44.084;2.962;2023-08-07T09:41:18;98220.22;;;20.72;36.57
50518;BME280;37075;44.084;2.962;2023-08-07T09:44:06;98219.38;;;20.65;35.38
50518;BME280;37075;44.084;2.962;2023-08-07T09:46:53;98220.59;;;20.71;35.10
50518;BME280;37075;44.084;2.962;2023-08-07T09:49:57;98204.75;;;20.71;35.94
50518;BME280;37075;44.084;2.962;2023-08-07T09:52:45;98196.88;;;20.77;35.39
50518;BME280;37075;44.084;2.962;2023-08-07T09:55:31;98215.09;;;20.81;36.25
50518;BME280;37075;44.084;2.962;2023-08-07T09:58:18;98234.91;;;20.80;35.77
50518;BME280;37075;44.084;2.962;2023-08-07T10:01:04;98213.16;;;20.85;35.98
50518;BME280;37075;44.084;2.962;2023-08-07T10:03:52;98213.16;;;20.89;35.19
50518;BME280;37075;44.084;2.962;2023-08-07T10:06:38;98206.78;;;20.81;35.01
50518;BME280;37075;44.084;2.962;2023-08-07T10:09:23;98195.38;;;20.97;34.63
50518;BME280;37075;44.084;2.962;2023-08-07T10:12:10;98199.00;;;21.19;35.29
50518;BME280;37075;44.084;2.962;2023-08-07T10:14:56;98189.53;;;21.27;35.32
50518;BME280;37075;44.084;2.962;2023-08-07T10:17:41;98182.81;;;21.28;34.97
50518;BME280;37075;44.084;2.962;2023-08-07T10:20:29;98178.47;;;21.48;35.34
50518;BME280;37075;44.084;2.962;2023-08-07T10:23:15;98182.47;;;21.62;35.07
50518;BME280;37075;44.084;2.962;2023-08-07T10:26:02;98185.25;;;21.76;34.45
50518;BME280;37075;44.084;2.962;2023-08-07T10:28:49;98158.28;;;21.87;34.77
50518;BME280;37075;44.084;2.962;2023-08-07T10:31:37;98160.63;;;22.03;34.27
50518;BME280;37075;44.084;2.962;2023-08-07T10:34:43;98165.44;;;22.13;34.61
50518;BME280;37075;44.084;2.962;2023-08-07T10:37:33;98170.56;;;22.22;34.44
50518;BME280;37075;44.084;2.962;2023-08-07T10:41:00;98172.16;;;22.26;33.85
50518;BME280;37075;44.084;2.962;2023-08-07T10:43:46;98161.78;;;22.34;33.03
50518;BME280;37075;44.084;2.962;2023-08-07T10:46:46;98178.84;;;22.46;33.59
50518;BME280;37075;44.084;2.962;2023-08-07T10:49:32;98156.25;;;22.34;32.54
50518;BME280;37075;44.084;2.962;2023-08-07T10:52:18;98153.84;;;22.46;33.20
50518;BME280;37075;44.084;2.962;2023-08-07T10:55:13;98164.19;;;22.35;32.66
50518;BME280;37075;44.084;2.962;2023-08-07T10:58:00;98149.53;;;22.24;32.22
50518;BME280;37075;44.084;2.962;2023-08-07T11:00:46;98160.22;;;22.33;32.59
50518;BME280;37075;44.084;2.962;2023-08-07T11:03:35;98159.00;;;22.48;33.21
50518;BME280;37075;44.084;2.962;2023-08-07T11:06:22;98174.06;;;22.51;33.11
50518;BME280;37075;44.084;2.962;2023-08-07T11:09:08;98164.09;;;22.67;32.57
50518;BME280;37075;44.084;2.962;2023-08-07T11:11:55;98160.06;;;22.83;33.40
50518;BME280;37075;44.084;2.962;2023-08-07T11:14:41;98166.47;;;22.72;32.62
50518;BME280;37075;44.084;2.962;2023-08-07T11:17:28;98168.03;;;22.77;32.82
50518;BME280;37075;44.084;2.962;2023-08-07T11:20:14;98159.66;;;22.84;32.45
50518;BME280;37075;44.084;2.962;2023-08-07T11:23:00;98164.69;;;23.18;32.76
50518;BME280;37075;44.084;2.962;2023-08-07T11:25:46;98155.81;;;23.33;31.93
50518;BME280;37075;44.084;2.962;2023-08-07T11:28:33;98141.84;;;23.41;32.18
50518;BME280;37075;44.084;2.962;2023-08-07T11:31:20;98141.38;;;23.53;31.81
50518;BME280;37075;44.084;2.962;2023-08-07T11:34:06;98141.75;;;23.58;31.33
50518;BME280;37075;44.084;2.962;2023-08-07T11:36:52;98138.88;;;23.73;31.71
50518;BME280;37075;44.084;2.962;2023-08-07T11:39:41;98148.53;;;23.57;32.06
50518;BME280;37075;44.084;2.962;2023-08-07T11:42:45;98134.56;;;23.61;31.83
50518;BME280;37075;44.084;2.962;2023-08-07T11:45:33;98139.44;;;23.46;32.08
50518;BME280;37075;44.084;2.962;2023-08-07T11:48:19;98123.06;;;23.55;31.84
50518;BME280;37075;44.084;2.962;2023-08-07T11:51:05;98132.56;;;23.65;32.03
50518;BME280;37075;44.084;2.962;2023-08-07T11:53:52;98139.00;;;23.51;31.54
50518;BME280;37075;44.084;2.962;2023-08-07T11:56:41;98127.44;;;23.60;31.83
50518;BME280;37075;44.084;2.962;2023-08-07T11:59:27;98137.34;;;23.61;31.70
50518;BME280;37075;44.084;2.962;2023-08-07T12:02:15;98124.00;;;23.86;31.91
50518;BME280;37075;44.084;2.962;2023-08-07T12:05:19;98115.34;;;24.18;31.23
50518;BME280;37075;44.084;2.962;2023-08-07T12:08:06;98100.34;;;24.43;31.53
50518;BME280;37075;44.084;2.962;2023-08-07T12:10:53;98131.03;;;24.43;30.09
50518;BME280;37075;44.084;2.962;2023-08-07T12:13:40;98103.69;;;24.65;31.15
50518;BME280;37075;44.084;2.962;2023-08-07T12:16:26;98100.28;;;24.80;30.33
50518;BME280;37075;44.084;2.962;2023-08-07T12:19:14;98101.91;;;24.47;30.64
50518;BME280;37075;44.084;2.962;2023-08-07T12:22:01;98096.13;;;24.27;30.83
50518;BME280;37075;44.084;2.962;2023-08-07T12:24:48;98086.19;;;24.30;30.80
50518;BME280;37075;44.084;2.962;2023-08-07T12:27:35;98090.47;;;24.38;30.73
50518;BME280;37075;44.084;2.962;2023-08-07T12:30:21;98093.84;;;24.56;30.95
50518;BME280;37075;44.084;2.962;2023-08-07T12:33:06;98076.31;;;24.56;30.24
50518;BME280;37075;44.084;2.962;2023-08-07T12:35:54;98083.59;;;24.46;30.24
50518;BME280;37075;44.084;2.962;2023-08-07T12:38:41;98079.03;;;24.59;30.23
50518;BME280;37075;44.084;2.962;2023-08-07T12:41:27;98080.41;;;24.78;30.16
50518;BME280;37075;44.084;2.962;2023-08-07T12:44:13;98077.81;;;24.91;30.62
50518;BME280;37075;44.084;2.962;2023-08-07T12:46:59;98085.88;;;24.55;29.25
50518;BME280;37075;44.084;2.962;2023-08-07T12:49:45;98072.06;;;24.44;28.77
50518;BME280;37075;44.084;2.962;2023-08-07T12:52:33;98078.19;;;24.63;29.69
50518;BME280;37075;44.084;2.962;2023-08-07T12:55:19;98080.44;;;24.75;29.54
50518;BME280;37075;44.084;2.962;2023-08-07T12:58:05;98069.13;;;24.85;30.26
50518;BME280;37075;44.084;2.962;2023-08-07T13:01:10;98068.06;;;25.06;29.80
50518;BME280;37075;44.084;2.962;2023-08-07T13:03:56;98069.38;;;25.25;30.62
50518;BME280;37075;44.084;2.962;2023-08-07T13:06:42;98064.53;;;25.29;28.58
50518;BME280;37075;44.084;2.962;2023-08-07T13:09:29;98060.34;;;25.41;27.89
50518;BME280;37075;44.084;2.962;2023-08-07T13:12:15;98064.16;;;25.97;28.48
50518;BME280;37075;44.084;2.962;2023-08-07T13:15:01;98052.13;;;26.80;28.75
50518;BME280;37075;44.084;2.962;2023-08-07T13:17:47;98059.78;;;27.64;28.33
50518;BME280;37075;44.084;2.962;2023-08-07T13:20:33;98048.38;;;27.87;25.26
50518;BME280;37075;44.084;2.962;2023-08-07T13:23:19;98056.09;;;28.12;24.64
50518;BME280;37075;44.084;2.962;2023-08-07T13:26:06;98058.63;;;28.07;24.21
50518;BME280;37075;44.084;2.962;2023-08-07T13:28:52;98043.72;;;28.80;23.88
50518;BME280;37075;44.084;2.962;2023-08-07T13:31:38;98043.81;;;29.66;23.58
50518;BME280;37075;44.084;2.962;2023-08-07T13:34:25;98067.13;;;30.01;22.40
50518;BME280;37075;44.084;2.962;2023-08-07T13:37:11;98031.34;;;30.67;22.96
50518;BME280;37075;44.084;2.962;2023-08-07T13:39:57;98047.69;;;31.12;21.93
50518;BME280;37075;44.084;2.962;2023-08-07T13:42:45;98041.09;;;31.37;21.54
50518;BME280;37075;44.084;2.962;2023-08-07T13:45:31;98034.75;;;32.19;20.39
50518;BME280;37075;44.084;2.962;2023-08-07T13:48:17;98034.72;;;32.65;20.10
50518;BME280;37075;44.084;2.962;2023-08-07T13:51:03;98037.34;;;32.77;18.54
50518;BME280;37075;44.084;2.962;2023-08-07T13:53:51;98022.22;;;33.41;18.77
50518;BME280;37075;44.084;2.962;2023-08-07T13:56:37;98027.34;;;33.76;17.84
50518;BME280;37075;44.084;2.962;2023-08-07T13:59:25;98035.31;;;33.86;17.36
50518;BME280;37075;44.084;2.962;2023-08-07T14:02:29;98031.00;;;34.29;17.71
50518;BME280;37075;44.084;2.962;2023-08-07T14:05:16;98020.00;;;34.61;17.23
50518;BME280;37075;44.084;2.962;2023-08-07T14:08:02;98030.63;;;35.25;17.02
50518;BME280;37075;44.084;2.962;2023-08-07T14:10:48;98019.56;;;36.23;17.63
50518;BME280;37075;44.084;2.962;2023-08-07T14:13:53;98023.50;;;35.85;15.90
50518;BME280;37075;44.084;2.962;2023-08-07T14:16:40;98017.78;;;36.26;15.92
50518;BME280;37075;44.084;2.962;2023-08-07T14:19:27;98016.94;;;35.79;15.45
50518;BME280;37075;44.084;2.962;2023-08-07T14:22:13;98026.41;;;36.63;15.26
50518;BME280;37075;44.084;2.962;2023-08-07T14:24:59;98013.94;;;37.12;15.09
50518;BME280;37075;44.084;2.962;2023-08-07T14:27:45;98005.06;;;37.84;15.59
50518;BME280;37075;44.084;2.962;2023-08-07T14:30:31;98015.63;;;37.73;14.52
50518;BME280;37075;44.084;2.962;2023-08-07T14:33:18;98013.41;;;36.51;14.52
50518;BME280;37075;44.084;2.962;2023-08-07T14:36:04;98006.41;;;37.46;14.62
50518;BME280;37075;44.084;2.962;2023-08-07T14:38:50;98015.50;;;36.82;14.39
50518;BME280;37075;44.084;2.962;2023-08-07T14:41:36;98008.28;;;36.81;14.89
50518;BME280;37075;44.084;2.962;2023-08-07T14:44:22;98012.97;;;36.11;15.45
50518;BME280;37075;44.084;2.962;2023-08-07T14:47:08;98008.38;;;36.40;15.54
50518;BME280;37075;44.084;2.962;2023-08-07T14:49:55;97999.59;;;36.95;15.30